Time;durP1;ratioP1;P1;durP2;ratioP2;P2;SDS_P1;SDS_P2;PMS_P1;PMS_P2;Temp;Humidity;BMP_temperature;BMP_pressure;BME280_temperature;BME280_humidity;BME280_pressure;Samples;Min_cycle;Max_cycle;Signal;HPM_P1;HPM_P2
2022/09/23 00:00:23;;;;;;;10.52;5.82;;;12.40;99.90;;;;;;5029346;28;20018;-75
2022/09/23 00:02:50;;;;;;;7.45;5.38;;;12.40;99.90;;;;;;5032616;28;20466;-75
2022/09/23 00:05:16;;;;;;;9.40;5.68;;;12.40;99.90;;;;;;5031563;28;20503;-75
2022/09/23 00:07:43;;;;;;;10.50;5.93;;;12.30;99.90;;;;;;5031801;28;20075;-75
2022/09/23 00:10:09;;;;;;;8.65;5.82;;;12.40;99.90;;;;;;5033497;28;20025;-75
2022/09/23 00:12:35;;;;;;;9.43;5.93;;;12.30;99.90;;;;;;5035614;28;20027;-75
2022/09/23 00:15:01;;;;;;;11.65;6.05;;;12.30;99.90;;;;;;5032616;28;20112;-75
2022/09/23 00:17:27;;;;;;;11.10;6.80;;;12.30;99.90;;;;;;5032933;28;20033;-75
2022/09/23 00:19:54;;;;;;;10.77;5.88;;;12.30;99.90;;;;;;5022011;28;20079;-75
2022/09/23 00:22:20;;;;;;;9.88;6.30;;;12.20;99.90;;;;;;5033071;28;20030;-75
2022/09/23 00:24:45;;;;;;;10.50;6.57;;;12.20;99.90;;;;;;5032634;28;20634;-75
2022/09/23 00:27:11;;;;;;;10.05;5.85;;;12.20;99.90;;;;;;5032499;28;20076;-76
2022/09/23 00:29:37;;;;;;;10.00;6.70;;;12.20;99.90;;;;;;5032653;28;20030;-76
2022/09/23 00:32:03;;;;;;;12.55;6.03;;;12.20;99.90;;;;;;5032425;28;20536;-75
2022/09/23 00:34:29;;;;;;;8.80;6.45;;;12.10;99.90;;;;;;5032643;28;20444;-75
2022/09/23 00:36:58;;;;;;;8.05;5.90;;;12.10;99.90;;;;;;5032609;28;20124;-75
2022/09/23 00:39:25;;;;;;;10.00;6.18;;;12.10;99.90;;;;;;5031146;28;20017;-75
2022/09/23 00:41:51;;;;;;;8.25;6.13;;;12.10;99.90;;;;;;5033045;28;20209;-75
2022/09/23 00:44:48;;;;;;;9.45;6.60;;;12.10;99.90;;;;;;5032112;28;20367;-75
2022/09/23 00:47:28;;;;;;;11.70;7.00;;;12.00;99.90;;;;;;5030451;28;20025;-75
2022/09/23 00:50:04;;;;;;;9.82;6.53;;;12.00;99.90;;;;;;5025126;28;20041;-75
2022/09/23 00:52:32;;;;;;;8.50;6.55;;;12.00;99.90;;;;;;5032737;28;20037;-75
2022/09/23 00:55:01;;;;;;;11.82;6.85;;;12.00;99.90;;;;;;5032103;28;20041;-75
2022/09/23 00:57:28;;;;;;;9.38;6.63;;;12.00;99.90;;;;;;5032121;28;20018;-75
2022/09/23 00:59:54;;;;;;;11.93;6.68;;;12.00;99.90;;;;;;5032570;28;20029;-75
2022/09/23 01:02:20;;;;;;;9.07;6.47;;;11.90;99.90;;;;;;5031106;28;20038;-75
2022/09/23 01:04:49;;;;;;;8.77;6.70;;;11.90;99.90;;;;;;5031951;28;20117;-75
2022/09/23 01:07:15;;;;;;;10.75;7.18;;;11.90;99.90;;;;;;5031366;28;20048;-75
2022/09/23 01:09:40;;;;;;;9.90;6.78;;;11.90;99.90;;;;;;5025962;28;20026;-75
2022/09/23 01:12:44;;;;;;;11.80;7.18;;;11.90;99.90;;;;;;5024509;28;20100;-75
2022/09/23 01:15:35;;;;;;;9.68;6.68;;;11.90;99.90;;;;;;5023245;28;20036;-75
2022/09/23 01:18:15;;;;;;;9.38;6.30;;;11.90;99.90;;;;;;5031827;28;20481;-75
2022/09/23 01:21:05;;;;;;;9.57;6.70;;;11.90;99.90;;;;;;5031534;28;20477;-75
2022/09/23 01:23:53;;;;;;;9.15;6.70;;;11.80;99.90;;;;;;5031343;28;20029;-75
2022/09/23 01:26:43;;;;;;;13.68;6.80;;;11.80;99.90;;;;;;5029116;28;20343;-75
2022/09/23 01:29:41;;;;;;;12.82;7.03;;;11.80;99.90;;;;;;5015052;28;20348;-75
2022/09/23 01:32:46;;;;;;;8.50;6.88;;;11.80;99.90;;;;;;5032986;28;20083;-75
2022/09/23 01:35:15;;;;;;;10.45;7.13;;;11.80;99.90;;;;;;5030631;28;20343;-75
2022/09/23 01:38:05;;;;;;;9.98;6.95;;;11.80;99.90;;;;;;5034682;28;20414;-75
2022/09/23 01:41:15;;;;;;;10.15;7.22;;;11.80;99.90;;;;;;5031440;28;20025;-75
2022/09/23 01:43:52;;;;;;;11.55;7.55;;;11.70;99.90;;;;;;5026455;28;20175;-75
2022/09/23 01:46:26;;;;;;;10.23;7.30;;;11.70;99.90;;;;;;5032026;28;20053;-75
2022/09/23 01:49:13;;;;;;;10.63;6.70;;;11.70;99.90;;;;;;5031756;28;20056;-75
2022/09/23 01:51:45;;;;;;;9.98;6.93;;;11.70;99.90;;;;;;5026529;28;20103;-75
2022/09/23 01:54:23;;;;;;;10.20;7.57;;;11.60;99.90;;;;;;5031036;28;20151;-75
2022/09/23 01:57:48;;;;;;;11.73;7.03;;;11.60;99.90;;;;;;5031652;28;20042;-75
2022/09/23 02:00:16;;;;;;;11.38;7.60;;;11.60;99.90;;;;;;4969001;28;20503;-76
2022/09/23 02:02:58;;;;;;;10.57;8.18;;;11.60;99.90;;;;;;4960788;28;20035;-75
2022/09/23 02:05:27;;;;;;;10.05;7.43;;;11.50;99.90;;;;;;4958303;28;20350;-75
2022/09/23 02:08:13;;;;;;;12.23;7.57;;;11.50;99.90;;;;;;4964153;28;20602;-75
2022/09/23 02:10:44;;;;;;;11.98;8.10;;;11.50;99.90;;;;;;4960896;28;20046;-75
2022/09/23 02:13:38;;;;;;;13.60;8.10;;;11.50;99.90;;;;;;4969332;28;20418;-75
2022/09/23 02:16:11;;;;;;;10.68;7.25;;;11.50;99.90;;;;;;4968301;28;20069;-75
2022/09/23 02:18:53;;;;;;;11.38;8.00;;;11.50;99.90;;;;;;4969224;28;20027;-75
2022/09/23 02:21:23;;;;;;;12.88;8.15;;;11.50;99.90;;;;;;4962903;28;20042;-75
2022/09/23 02:23:58;;;;;;;11.65;8.35;;;11.50;99.90;;;;;;4969490;28;20529;-75
2022/09/23 02:26:45;;;;;;;12.15;7.88;;;11.40;99.90;;;;;;4969388;28;20061;-75
2022/09/23 02:29:32;;;;;;;11.73;8.05;;;11.40;99.90;;;;;;4969449;28;20077;-75
2022/09/23 02:32:22;;;;;;;9.82;7.68;;;11.50;99.90;;;;;;4969362;28;20089;-75
2022/09/23 02:35:21;;;;;;;9.90;7.93;;;11.40;99.90;;;;;;5006475;28;20045;-75
2022/09/23 02:37:53;;;;;;;11.00;8.45;;;11.50;99.90;;;;;;5016925;28;20064;-75
2022/09/23 02:40:22;;;;;;;12.40;8.45;;;11.40;99.90;;;;;;5030853;28;20075;-75
2022/09/23 02:42:51;;;;;;;15.00;8.80;;;11.50;99.90;;;;;;5030181;28;20032;-75
2022/09/23 02:45:17;;;;;;;12.23;8.63;;;11.40;99.90;;;;;;5030413;28;20025;-75
2022/09/23 02:47:46;;;;;;;14.52;8.50;;;11.50;99.90;;;;;;5030354;28;20045;-76
2022/09/23 02:50:12;;;;;;;13.45;8.60;;;11.40;99.90;;;;;;5030321;28;20061;-75
2022/09/23 02:52:38;;;;;;;11.60;8.15;;;11.50;99.90;;;;;;5030655;28;20470;-75
2022/09/23 02:55:10;;;;;;;11.15;8.50;;;11.50;99.90;;;;;;5030202;28;20036;-75
2022/09/23 02:57:36;;;;;;;10.35;7.45;;;11.50;99.90;;;;;;5029028;28;20477;-75
2022/09/23 03:00:04;;;;;;;11.93;8.32;;;11.50;99.90;;;;;;5030407;28;20043;-75
2022/09/23 03:02:40;;;;;;;10.43;8.35;;;11.50;99.90;;;;;;5029383;28;20022;-75
2022/09/23 03:05:23;;;;;;;12.07;8.10;;;11.50;99.90;;;;;;5026374;28;20038;-75
2022/09/23 03:08:07;;;;;;;12.55;8.52;;;11.50;99.90;;;;;;5029631;28;20029;-74
2022/09/23 03:10:56;;;;;;;12.43;8.70;;;11.50;99.90;;;;;;5027071;28;20026;-74
2022/09/23 03:13:42;;;;;;;14.27;9.23;;;11.50;99.90;;;;;;5017172;28;20108;-75
2022/09/23 03:16:28;;;;;;;12.32;9.20;;;11.60;99.90;;;;;;5012761;28;20048;-75
2022/09/23 03:19:02;;;;;;;13.52;8.90;;;11.60;99.90;;;;;;5027351;28;20105;-75
2022/09/23 03:21:33;;;;;;;14.27;9.32;;;11.60;99.90;;;;;;5021943;28;20026;-75
2022/09/23 03:24:03;;;;;;;13.05;9.32;;;11.60;99.90;;;;;;5019508;28;20116;-75
2022/09/23 03:26:35;;;;;;;16.98;10.00;;;11.70;99.90;;;;;;5029208;28;20080;-75
2022/09/23 03:29:10;;;;;;;14.93;10.15;;;11.70;99.90;;;;;;5026388;28;20108;-75
2022/09/23 03:31:41;;;;;;;13.70;8.80;;;11.70;99.90;;;;;;5028614;28;20457;-75
2022/09/23 03:34:16;;;;;;;14.50;9.75;;;11.80;99.90;;;;;;5029414;28;20036;-75
2022/09/23 03:36:50;;;;;;;14.30;9.48;;;11.80;99.90;;;;;;5036615;28;20017;-75
2022/09/23 03:39:39;;;;;;;14.95;9.68;;;11.80;99.90;;;;;;5019530;28;20037;-75
2022/09/23 03:42:19;;;;;;;11.93;9.32;;;11.90;99.90;;;;;;5028721;28;20029;-75
2022/09/23 03:44:46;;;;;;;14.20;9.10;;;11.90;99.90;;;;;;5021392;28;20041;-75
2022/09/23 03:47:14;;;;;;;12.35;9.48;;;11.90;99.90;;;;;;5029171;28;20033;-75
2022/09/23 03:49:43;;;;;;;13.32;9.45;;;12.00;99.90;;;;;;5033064;28;20029;-75
2022/09/23 03:52:08;;;;;;;14.02;9.57;;;12.00;99.90;;;;;;5029177;28;20329;-75
2022/09/23 03:54:34;;;;;;;16.58;10.30;;;12.00;99.90;;;;;;5029072;28;20477;-75
2022/09/23 03:57:01;;;;;;;12.90;10.02;;;12.00;99.90;;;;;;5029460;28;20094;-76
2022/09/23 03:59:29;;;;;;;13.18;9.75;;;12.00;99.90;;;;;;5026980;28;20028;-75
2022/09/23 04:01:55;;;;;;;15.18;9.55;;;12.10;99.90;;;;;;5029829;28;20022;-75
2022/09/23 04:04:21;;;;;;;13.10;10.05;;;12.10;99.90;;;;;;5029244;28;20077;-75
2022/09/23 04:06:47;;;;;;;14.45;9.75;;;12.10;99.90;;;;;;5029233;28;20486;-75
2022/09/23 04:09:13;;;;;;;12.35;9.50;;;12.10;99.90;;;;;;5029136;28;20025;-76
2022/09/23 04:11:38;;;;;;;13.73;10.05;;;12.20;99.90;;;;;;5029114;28;20435;-75
2022/09/23 04:14:04;;;;;;;18.00;9.68;;;12.20;99.90;;;;;;5029454;28;20534;-75
2022/09/23 04:16:30;;;;;;;13.00;9.38;;;12.20;99.90;;;;;;5029063;28;20014;-76
2022/09/23 04:18:55;;;;;;;13.50;9.85;;;12.20;99.90;;;;;;5028993;28;20385;-75
2022/09/23 04:21:21;;;;;;;16.67;10.57;;;12.30;99.90;;;;;;5026964;28;20014;-75
2022/09/23 04:23:47;;;;;;;14.30;9.73;;;12.30;99.90;;;;;;5018009;28;20033;-75
2022/09/23 04:26:13;;;;;;;17.90;9.98;;;12.30;99.90;;;;;;5028801;28;20104;-75
2022/09/23 04:28:38;;;;;;;18.58;9.95;;;12.40;99.90;;;;;;5029688;28;21404;-75
2022/09/23 04:31:06;;;;;;;13.20;10.13;;;12.40;99.90;;;;;;5027058;28;20108;-75
2022/09/23 04:33:32;;;;;;;16.85;9.48;;;12.40;99.90;;;;;;5028657;28;20238;-75
2022/09/23 04:35:58;;;;;;;13.18;9.85;;;12.40;99.90;;;;;;5029030;28;20382;-75
2022/09/23 04:38:24;;;;;;;19.95;10.73;;;12.40;99.90;;;;;;5028492;28;20025;-75
2022/09/23 04:40:50;;;;;;;16.85;10.40;;;12.40;99.90;;;;;;5031549;28;20026;-75
2022/09/23 04:43:16;;;;;;;15.60;10.07;;;12.50;99.90;;;;;;5033283;28;20041;-75
2022/09/23 04:45:42;;;;;;;14.15;10.40;;;12.50;99.90;;;;;;5031765;28;20033;-75
2022/09/23 04:48:09;;;;;;;16.13;10.15;;;12.60;99.90;;;;;;5027811;28;20032;-75
2022/09/23 04:50:36;;;;;;;15.45;10.75;;;12.60;99.90;;;;;;5019636;28;20500;-75
2022/09/23 04:53:02;;;;;;;16.48;10.35;;;12.60;99.90;;;;;;5024457;28;20037;-75
2022/09/23 04:55:28;;;;;;;13.57;10.95;;;12.60;99.90;;;;;;5014139;28;20013;-74
2022/09/23 04:57:54;;;;;;;19.00;10.57;;;12.60;99.90;;;;;;5022037;28;20029;-75
2022/09/23 05:00:22;;;;;;;15.02;11.05;;;12.60;99.90;;;;;;5014861;28;20430;-75
2022/09/23 05:02:48;;;;;;;17.67;10.80;;;12.60;99.90;;;;;;5014043;28;20022;-75
2022/09/23 05:05:19;;;;;;;17.95;11.05;;;12.60;99.90;;;;;;5043920;28;20025;-75
2022/09/23 05:07:48;;;;;;;18.15;10.90;;;12.60;99.90;;;;;;5018925;28;20042;-77
2022/09/23 05:10:14;;;;;;;14.77;10.48;;;12.60;99.90;;;;;;5019465;28;20088;-77
2022/09/23 05:12:40;;;;;;;18.20;10.82;;;12.70;99.90;;;;;;5020609;28;20033;-75
2022/09/23 05:15:06;;;;;;;15.23;10.60;;;12.70;99.90;;;;;;5013229;28;20448;-75
2022/09/23 05:17:32;;;;;;;18.48;11.23;;;12.70;99.90;;;;;;5014581;28;20036;-75
2022/09/23 05:19:58;;;;;;;15.18;10.23;;;12.70;99.90;;;;;;5026978;28;20112;-75
2022/09/23 05:22:25;;;;;;;15.50;11.07;;;12.70;99.90;;;;;;5031797;28;20481;-75
2022/09/23 05:24:51;;;;;;;17.05;10.75;;;12.80;99.90;;;;;;5021006;28;20065;-74
2022/09/23 05:27:17;;;;;;;17.65;10.57;;;12.70;99.90;;;;;;5029226;28;20028;-75
2022/09/23 05:29:46;;;;;;;15.43;9.85;;;12.70;99.90;;;;;;5031630;28;20119;-78
2022/09/23 05:32:13;;;;;;;21.88;10.98;;;12.70;99.90;;;;;;5018962;28;20021;-76
2022/09/23 05:34:38;;;;;;;18.27;10.38;;;12.70;99.90;;;;;;5032005;28;20033;-75
2022/09/23 05:37:04;;;;;;;17.00;10.95;;;12.80;99.90;;;;;;5045572;28;20506;-75
2022/09/23 05:39:30;;;;;;;17.33;10.40;;;12.80;99.90;;;;;;5029281;28;20025;-74
2022/09/23 05:41:55;;;;;;;20.00;11.13;;;12.80;99.90;;;;;;5021871;28;20568;-75
2022/09/23 05:44:21;;;;;;;17.00;10.68;;;12.80;99.90;;;;;;5031270;28;20029;-75
2022/09/23 05:46:46;;;;;;;19.42;10.38;;;12.80;99.90;;;;;;5032119;28;20032;-75
2022/09/23 05:49:12;;;;;;;19.02;10.75;;;12.80;99.90;;;;;;5020474;28;20482;-76
2022/09/23 05:51:38;;;;;;;16.73;11.05;;;12.90;99.90;;;;;;5021608;28;20067;-74
2022/09/23 05:54:04;;;;;;;15.95;10.88;;;12.90;99.90;;;;;;5028194;28;20057;-75
2022/09/23 05:56:31;;;;;;;18.33;11.45;;;12.90;99.90;;;;;;5031038;28;20044;-75
2022/09/23 05:58:58;;;;;;;17.30;11.20;;;12.90;99.90;;;;;;5029787;28;20063;-75
2022/09/23 06:01:27;;;;;;;18.80;11.55;;;12.90;99.90;;;;;;5029051;28;20498;-75
2022/09/23 06:03:56;;;;;;;19.40;11.10;;;12.90;99.90;;;;;;5019194;28;20037;-75
2022/09/23 06:06:36;;;;;;;19.38;11.50;;;12.90;99.90;;;;;;5028437;28;20017;-75
2022/09/23 06:09:03;;;;;;;18.00;10.93;;;13.00;99.90;;;;;;5029953;28;20501;-75
2022/09/23 06:11:30;;;;;;;19.05;10.70;;;13.00;99.90;;;;;;5017353;28;20075;-75
2022/09/23 06:14:01;;;;;;;19.15;11.35;;;13.00;99.90;;;;;;5030132;28;20054;-75
2022/09/23 06:16:28;;;;;;;17.02;11.15;;;13.00;99.90;;;;;;5017531;28;20065;-75
2022/09/23 06:18:54;;;;;;;19.85;11.18;;;13.10;99.90;;;;;;5030671;28;20025;-75
2022/09/23 06:21:19;;;;;;;16.95;11.30;;;13.00;99.90;;;;;;5028472;28;20022;-75
2022/09/23 06:23:45;;;;;;;18.75;11.32;;;13.10;99.90;;;;;;5013226;28;20477;-75
2022/09/23 06:26:15;;;;;;;18.17;11.88;;;13.10;99.90;;;;;;5025205;28;20029;-75
2022/09/23 06:28:42;;;;;;;16.20;11.18;;;13.20;99.90;;;;;;5017956;28;20148;-75
2022/09/23 06:31:13;;;;;;;18.40;11.80;;;13.20;99.90;;;;;;5031104;28;20048;-75
2022/09/23 06:33:39;;;;;;;20.02;11.52;;;13.20;99.90;;;;;;5017893;28;20489;-75
2022/09/23 06:36:06;;;;;;;17.10;11.73;;;13.30;99.90;;;;;;5030996;28;20020;-75
2022/09/23 06:38:33;;;;;;;20.73;11.50;;;13.30;99.90;;;;;;5030924;28;20508;-75
2022/09/23 06:40:59;;;;;;;18.40;11.82;;;13.30;99.90;;;;;;5035976;28;20025;-75
2022/09/23 06:43:25;;;;;;;27.52;11.73;;;13.40;99.90;;;;;;5038382;28;20040;-75
2022/09/23 06:45:52;;;;;;;17.45;11.38;;;13.40;99.90;;;;;;5016522;28;20025;-75
2022/09/23 06:48:19;;;;;;;21.17;11.35;;;13.40;99.90;;;;;;5020062;28;20482;-75
2022/09/23 06:50:44;;;;;;;21.23;11.43;;;13.50;99.90;;;;;;5012399;28;20010;-75
2022/09/23 06:53:12;;;;;;;16.77;11.00;;;13.50;99.90;;;;;;5018816;28;20091;-75
2022/09/23 06:55:37;;;;;;;17.67;10.93;;;13.60;99.90;;;;;;5030393;28;20076;-76
2022/09/23 06:58:03;;;;;;;17.65;11.02;;;13.60;99.90;;;;;;5030370;28;20025;-75
2022/09/23 07:00:29;;;;;;;19.77;12.02;;;13.70;99.90;;;;;;5027209;28;20112;-76
2022/09/23 07:02:55;;;;;;;24.08;11.60;;;13.70;99.90;;;;;;5015286;28;20281;-76
2022/09/23 07:05:21;;;;;;;17.23;10.38;;;13.80;99.90;;;;;;5025528;28;20022;-76
2022/09/23 07:07:47;;;;;;;18.70;10.73;;;13.80;99.90;;;;;;5016446;28;20028;-75
2022/09/23 07:10:13;;;;;;;18.58;11.15;;;13.90;99.90;;;;;;5025261;28;20041;-77
2022/09/23 07:12:39;;;;;;;18.80;10.45;;;14.00;99.90;;;;;;5014237;28;20453;-75
2022/09/23 07:15:06;;;;;;;17.15;10.77;;;14.00;99.90;;;;;;5012251;28;20025;-75
2022/09/23 07:17:33;;;;;;;19.30;11.05;;;14.10;99.90;;;;;;5013520;28;20060;-76
2022/09/23 07:19:59;;;;;;;24.88;10.93;;;14.10;99.90;;;;;;5013136;28;20493;-74
2022/09/23 07:22:25;;;;;;;17.08;10.80;;;14.20;99.90;;;;;;5009992;28;20101;-75
2022/09/23 07:24:55;;;;;;;19.00;10.43;;;14.20;99.90;;;;;;5011593;28;20483;-76
2022/09/23 07:27:25;;;;;;;23.00;10.60;;;14.30;99.90;;;;;;5014439;28;20558;-75
2022/09/23 07:29:51;;;;;;;14.32;10.07;;;14.30;99.90;;;;;;5015605;28;20105;-75
2022/09/23 07:32:17;;;;;;;16.33;10.70;;;14.40;99.90;;;;;;5010771;28;20097;-75
2022/09/23 07:34:45;;;;;;;27.30;11.93;;;14.50;99.90;;;;;;5011326;28;20029;-76
2022/09/23 07:37:11;;;;;;;18.73;10.77;;;14.50;99.90;;;;;;5014828;28;20470;-75
2022/09/23 07:39:38;;;;;;;18.05;10.43;;;14.50;99.90;;;;;;5016751;28;20299;-76
2022/09/23 07:42:05;;;;;;;15.18;10.45;;;14.60;99.90;;;;;;5014615;28;20022;-75
2022/09/23 07:44:31;;;;;;;18.25;10.50;;;14.60;99.90;;;;;;5016145;28;20033;-77
2022/09/23 07:46:57;;;;;;;21.42;10.35;;;14.60;99.90;;;;;;5016443;28;20045;-75
2022/09/23 07:49:24;;;;;;;16.98;10.38;;;14.70;99.90;;;;;;5018444;28;20064;-76
2022/09/23 07:51:50;;;;;;;21.50;10.80;;;14.70;99.90;;;;;;5010473;28;20042;-75
2022/09/23 07:54:17;;;;;;;16.75;10.23;;;14.80;99.90;;;;;;5011194;28;20026;-75
2022/09/23 07:56:43;;;;;;;17.67;10.50;;;14.80;99.90;;;;;;5019641;28;20539;-76
2022/09/23 07:59:17;;;;;;;17.30;10.60;;;14.90;99.90;;;;;;5022196;28;20025;-77
2022/09/23 08:01:45;;;;;;;21.85;10.02;;;14.90;99.90;;;;;;5026979;28;20152;-76
2022/09/23 08:04:18;;;;;;;18.35;10.23;;;15.00;99.90;;;;;;5012663;28;20026;-76
2022/09/23 08:06:47;;;;;;;18.95;10.52;;;15.10;99.90;;;;;;5009039;28;20131;-74
2022/09/23 08:09:13;;;;;;;15.80;9.82;;;15.20;99.90;;;;;;5014606;28;20033;-74
2022/09/23 08:11:40;;;;;;;22.13;10.88;;;15.20;99.90;;;;;;5021789;28;20028;-75
2022/09/23 08:14:07;;;;;;;17.20;9.82;;;15.30;99.90;;;;;;5012384;28;20470;-76
2022/09/23 08:16:33;;;;;;;16.80;10.60;;;15.40;99.90;;;;;;5028108;28;20045;-76
2022/09/23 08:18:59;;;;;;;21.58;10.63;;;15.50;99.90;;;;;;5014824;28;20088;-77
2022/09/23 08:21:24;;;;;;;18.48;10.13;;;15.50;99.90;;;;;;5032266;28;20029;-76
2022/09/23 08:23:50;;;;;;;19.17;9.90;;;15.60;99.90;;;;;;5033810;28;20039;-77
2022/09/23 08:26:16;;;;;;;15.38;9.45;;;15.60;99.90;;;;;;5033802;28;20033;-76
2022/09/23 08:28:46;;;;;;;15.07;9.40;;;15.70;99.90;;;;;;5033965;28;20079;-77
2022/09/23 08:31:12;;;;;;;19.75;10.10;;;15.80;99.90;;;;;;5033613;28;20044;-77
2022/09/23 08:33:39;;;;;;;19.63;9.80;;;15.90;99.90;;;;;;5033490;28;20060;-75
2022/09/23 08:36:06;;;;;;;21.30;10.07;;;15.90;99.90;;;;;;5026245;28;20022;-77
2022/09/23 08:38:32;;;;;;;19.50;9.30;;;16.00;99.90;;;;;;5028378;28;20037;-77
2022/09/23 08:41:20;;;;;;;15.73;10.02;;;16.10;99.90;;;;;;5026645;28;20029;-77
2022/09/23 08:43:55;;;;;;;16.25;9.20;;;16.10;99.90;;;;;;5039190;28;20481;-74
2022/09/23 08:46:27;;;;;;;14.60;9.27;;;16.20;99.90;;;;;;5029917;28;20068;-75
2022/09/23 08:48:54;;;;;;;16.77;9.00;;;16.30;99.90;;;;;;5015252;28;20029;-76
2022/09/23 08:51:29;;;;;;;20.08;9.75;;;16.30;99.90;;;;;;5033033;28;20164;-77
2022/09/23 08:53:59;;;;;;;14.10;9.25;;;16.40;99.90;;;;;;5030685;28;20087;-78
2022/09/23 08:56:24;;;;;;;16.35;9.02;;;16.50;99.90;;;;;;5027206;28;20025;-78
2022/09/23 08:58:59;;;;;;;16.77;9.48;;;16.50;99.90;;;;;;5014672;28;20032;-78
2022/09/23 09:01:33;;;;;;;18.17;9.67;;;16.50;99.90;;;;;;5027963;28;20014;-76
2022/09/23 09:04:02;;;;;;;14.18;8.93;;;16.60;99.90;;;;;;5027044;28;20076;-76
2022/09/23 09:06:50;;;;;;;15.35;9.90;;;16.60;99.90;;;;;;5015151;28;20379;-76
2022/09/23 09:09:26;;;;;;;15.27;9.45;;;16.70;99.90;;;;;;5027060;28;20032;-76
2022/09/23 09:12:00;;;;;;;19.27;9.52;;;16.70;99.90;;;;;;5032376;28;20092;-75
2022/09/23 09:14:42;;;;;;;18.83;9.95;;;16.70;99.90;;;;;;5032891;28;20032;-75
2022/09/23 09:17:23;;;;;;;14.60;9.57;;;16.80;99.90;;;;;;5032763;28;20032;-77
2022/09/23 09:20:10;;;;;;;14.35;10.27;;;16.80;99.90;;;;;;5032262;28;20425;-74
2022/09/23 09:22:56;;;;;;;15.10;8.68;;;16.90;99.90;;;;;;5032419;28;20037;-76
2022/09/23 09:25:35;;;;;;;;;;;17.00;99.90;;;;;;5020215;28;20441;-76
2022/09/23 09:28:07;;;;;;;19.17;9.35;;;17.00;99.90;;;;;;5031660;28;20276;-76
2022/09/23 09:30:34;;;;;;;18.73;9.32;;;17.10;99.90;;;;;;5032710;28;20024;-76
2022/09/23 09:33:12;;;;;;;21.30;9.23;;;17.20;99.90;;;;;;5031403;28;20132;-76
2022/09/23 09:36:00;;;;;;;15.10;9.18;;;17.20;99.90;;;;;;5027763;28;20404;-76
2022/09/23 09:38:26;;;;;;;16.25;9.10;;;17.30;99.90;;;;;;5024532;28;20033;-76
2022/09/23 09:40:58;;;;;;;19.40;10.18;;;17.30;99.90;;;;;;5019227;28;20025;-77
2022/09/23 09:43:24;;;;;;;18.30;9.63;;;17.40;99.90;;;;;;5011059;28;20026;-76
2022/09/23 09:46:24;;;;;;;18.48;9.98;;;17.50;99.90;;;;;;5013879;28;20465;-76
2022/09/23 09:49:01;;;;;;;21.63;9.43;;;17.50;99.90;;;;;;5020755;28;20100;-76
2022/09/23 09:51:28;;;;;;;17.00;9.18;;;17.50;99.90;;;;;;5018579;28;20049;-76
2022/09/23 09:54:13;;;;;;;14.18;9.10;;;17.60;99.90;;;;;;5022360;28;20021;-77
2022/09/23 09:56:40;;;;;;;14.90;9.53;;;17.60;99.90;;;;;;5013540;28;20133;-76
2022/09/23 09:59:15;;;;;;;17.52;9.00;;;17.60;99.90;;;;;;5011706;28;20018;-77
2022/09/23 10:01:41;;;;;;;18.40;9.63;;;17.60;99.90;;;;;;5016817;28;20107;-76
2022/09/23 10:04:22;;;;;;;17.83;9.35;;;17.70;99.90;;;;;;5017559;28;20514;-77
2022/09/23 10:07:11;;;;;;;20.58;9.85;;;17.70;99.90;;;;;;5026001;28;21040;-76
2022/09/23 10:09:39;;;;;;;17.63;9.30;;;17.80;99.90;;;;;;5033143;28;20039;-76
2022/09/23 10:12:14;;;;;;;19.17;8.98;;;17.80;99.90;;;;;;5031057;28;20441;-77
2022/09/23 10:14:40;;;;;;;18.30;9.65;;;17.90;99.90;;;;;;5019583;28;20052;-77
2022/09/23 10:17:07;;;;;;;18.13;9.75;;;17.90;99.90;;;;;;5020660;28;20033;-77
2022/09/23 10:19:37;;;;;;;17.17;9.38;;;17.90;99.90;;;;;;5016969;28;20128;-77
2022/09/23 10:22:15;;;;;;;14.90;8.80;;;17.90;99.90;;;;;;5025954;28;20760;-77
2022/09/23 10:24:51;;;;;;;16.98;9.90;;;17.90;99.90;;;;;;5016485;28;20117;-77
2022/09/23 10:27:26;;;;;;;18.90;9.38;;;17.90;99.90;;;;;;5029112;28;20072;-77
2022/09/23 10:29:55;;;;;;;16.52;8.85;;;17.90;99.90;;;;;;5030989;28;20032;-77
2022/09/23 10:32:25;;;;;;;16.30;8.95;;;17.90;99.90;;;;;;5030967;28;20101;-77
2022/09/23 10:35:20;;;;;;;14.73;8.50;;;17.90;99.90;;;;;;5029204;28;20018;-77
2022/09/23 10:37:51;;;;;;;14.15;8.32;;;17.90;99.90;;;;;;5017998;28;20372;-77
2022/09/23 10:49:36;;;;;;;15.98;8.25;;;17.90;99.90;;;;;;5016357;28;20037;-77
2022/09/23 10:52:41;;;;;;;18.33;8.32;;;17.90;99.90;;;;;;5031341;28;20057;-77
2022/09/23 10:55:39;;;;;;;12.90;8.07;;;18.00;99.90;;;;;;5030790;28;20261;-77
2022/09/23 10:58:16;;;;;;;16.80;8.23;;;18.10;99.90;;;;;;5029483;28;20018;-77
2022/09/23 11:01:03;;;;;;;14.32;8.40;;;18.10;99.90;;;;;;5030782;28;20024;-77
2022/09/23 11:03:38;;;;;;;15.60;7.95;;;18.20;99.90;;;;;;5030468;28;20484;-77
2022/09/23 11:06:16;;;;;;;;;;;18.20;99.90;;;;;;5030260;28;20013;-77
2022/09/23 11:08:56;;;;;;;11.60;7.20;;;18.30;99.90;;;;;;5030109;28;19912;-77
2022/09/23 11:11:37;;;;;;;12.95;8.15;;;18.40;99.90;;;;;;5030393;28;20021;-77
2022/09/23 11:14:15;;;;;;;13.10;8.23;;;18.50;99.90;;;;;;5018435;28;20079;-77
2022/09/23 11:17:13;;;;;;;17.75;8.00;;;18.60;99.90;;;;;;5030388;28;20358;-75
2022/09/23 11:20:03;;;;;;;15.32;8.45;;;18.70;99.90;;;;;;5030631;28;20021;-76
2022/09/23 11:23:09;;;;;;;14.63;7.88;;;18.70;99.90;;;;;;5026543;28;20025;-76
2022/09/23 11:25:37;;;;;;;15.13;8.57;;;18.90;99.90;;;;;;5023146;28;20414;-76
2022/09/23 11:28:16;;;;;;;16.05;9.00;;;19.10;99.90;;;;;;5020848;28;20030;-76
2022/09/23 11:30:47;;;;;;;14.82;8.07;;;19.20;99.90;;;;;;5024192;28;20013;-77
2022/09/23 11:33:35;;;;;;;14.90;8.23;;;19.40;99.90;;;;;;5029639;28;20042;-77
2022/09/23 11:36:07;;;;;;;13.15;7.72;;;19.50;99.90;;;;;;5037367;28;20032;-74
2022/09/23 11:38:41;;;;;;;11.80;8.07;;;19.60;99.90;;;;;;5030556;28;20432;-79
2022/09/23 11:41:20;;;;;;;10.27;8.05;;;19.70;99.90;;;;;;5031232;28;20548;-75
2022/09/23 11:43:55;;;;;;;14.52;8.13;;;19.80;99.90;;;;;;5022333;28;20246;-77
2022/09/23 11:46:35;;;;;;;11.50;7.70;;;19.90;99.90;;;;;;5016485;28;20546;-76
2022/09/23 11:49:06;;;;;;;14.75;8.52;;;20.00;99.90;;;;;;5013164;28;20101;-75
2022/09/23 11:52:05;;;;;;;14.40;7.63;;;20.10;99.90;;;;;;5015270;28;20109;-75
2022/09/23 11:54:37;;;;;;;14.00;7.20;;;20.20;99.90;;;;;;5016925;28;20093;-75
2022/09/23 11:57:09;;;;;;;14.60;7.82;;;20.20;99.90;;;;;;5016527;28;20026;-75
2022/09/23 11:59:46;;;;;;;12.88;7.28;;;20.40;99.90;;;;;;5015071;28;20036;-76
2022/09/23 12:02:28;;;;;;;15.20;6.97;;;20.50;99.90;;;;;;5018931;28;20351;-77
2022/09/23 12:05:02;;;;;;;10.85;6.57;;;20.60;99.90;;;;;;5016465;28;20049;-76
2022/09/23 12:07:55;;;;;;;11.23;5.82;;;20.70;99.90;;;;;;5016321;28;20032;-77
2022/09/23 12:10:24;;;;;;;7.90;4.85;;;20.80;99.90;;;;;;5009937;28;20486;-77
2022/09/23 12:13:32;;;;;;;10.25;5.25;;;20.80;99.90;;;;;;5009981;28;20036;-77
2022/09/23 12:16:16;;;;;;;10.45;5.80;;;20.90;99.90;;;;;;4971201;28;20498;-77
2022/09/23 12:19:01;;;;;;;11.18;5.45;;;20.70;99.90;;;;;;4968949;28;20035;-77
2022/09/23 12:21:46;;;;;;;;;;;20.70;99.90;;;;;;4960207;28;20123;-77
2022/09/23 12:24:20;;;;;;;10.65;6.03;;;20.60;99.90;;;;;;4968189;28;20437;-77
2022/09/23 12:26:52;;;;;;;10.17;5.70;;;20.50;99.90;;;;;;4970508;28;20362;-78
2022/09/23 12:29:18;;;;;;;12.45;6.25;;;20.40;99.90;;;;;;4963822;28;20270;-77
2022/09/23 12:31:45;;;;;;;12.68;6.13;;;20.40;99.90;;;;;;4969278;28;20494;-76
2022/09/23 12:34:33;;;;;;;17.90;6.60;;;20.40;99.90;;;;;;4965502;28;20035;-76
2022/09/23 12:37:03;;;;;;;12.52;6.90;;;20.40;99.90;;;;;;4964625;28;20118;-77
2022/09/23 12:39:36;;;;;;;12.40;7.55;;;20.30;99.90;;;;;;4960025;28;20172;-75
2022/09/23 12:42:04;;;;;;;12.52;8.10;;;20.30;99.90;;;;;;4967793;28;20031;-78
2022/09/23 12:44:39;;;;;;;15.70;7.82;;;20.20;99.90;;;;;;4972430;28;20046;-76
2022/09/23 12:47:13;;;;;;;15.27;8.60;;;20.20;99.90;;;;;;4973831;28;20091;-77
2022/09/23 12:49:41;;;;;;;14.63;9.38;;;20.10;99.90;;;;;;5011436;28;20030;-76
2022/09/23 12:52:24;;;;;;;15.43;9.32;;;20.10;99.90;;;;;;5014576;28;20453;-75
2022/09/23 12:54:53;;;;;;;15.80;9.00;;;20.10;99.90;;;;;;5021571;28;20541;-73
2022/09/23 12:57:34;;;;;;;16.42;9.10;;;20.10;99.90;;;;;;5025574;28;20068;-76
2022/09/23 13:00:10;;;;;;;14.82;8.55;;;20.00;99.90;;;;;;5015986;28;20116;-76
2022/09/23 13:02:42;;;;;;;19.35;9.88;;;20.00;99.90;;;;;;5036633;28;20570;-75
2022/09/23 13:08:16;;;;;;;16.73;9.93;;;19.90;99.90;;;;;;5032496;28;20477;-75
2022/09/23 13:11:26;;;;;;;16.17;9.50;;;19.90;99.90;;;;;;5030565;28;20022;-76
2022/09/23 13:13:54;;;;;;;15.40;9.93;;;19.80;99.90;;;;;;5015280;28;20124;-76
2022/09/23 13:16:27;;;;;;;17.13;8.85;;;19.80;99.90;;;;;;5016298;28;20045;-76